sensor_id;sensor_type;location;lat;lon;timestamp;temperature;humidity
44170;DHT22;29836;52.286;9.576;2024-02-23T00:01:28;7.60;99.90
44170;DHT22;29836;52.286;9.576;2024-02-23T00:03:54;7.50;99.90
44170;DHT22;29836;52.286;9.576;2024-02-23T00:06:20;7.50;99.90
44170;DHT22;29836;52.286;9.576;2024-02-23T00:08:46;7.60;99.90
44170;DHT22;29836;52.286;9.576;2024-02-23T00:11:12;7.60;99.90
44170;DHT22;29836;52.286;9.576;2024-02-23T00:13:37;7.60;99.90
44170;DHT22;29836;52.286;9.576;2024-02-23T00:16:03;7.70;99.90
44170;DHT22;29836;52.286;9.576;2024-02-23T00:18:29;7.70;99.90
44170;DHT22;29836;52.286;9.576;2024-02-23T00:20:55;7.70;99.90
44170;DHT22;29836;52.286;9.576;2024-02-23T00:23:21;7.80;99.90
44170;DHT22;29836;52.286;9.576;2024-02-23T00:25:47;7.80;99.90
44170;DHT22;29836;52.286;9.576;2024-02-23T00:28:12;7.70;99.90
44170;DHT22;29836;52.286;9.576;2024-02-23T00:30:38;7.80;99.90
44170;DHT22;29836;52.286;9.576;2024-02-23T00:33:04;7.90;99.90
44170;DHT22;29836;52.286;9.576;2024-02-23T00:35:29;7.80;99.90
44170;DHT22;29836;52.286;9.576;2024-02-23T00:37:55;7.80;99.90
44170;DHT22;29836;52.286;9.576;2024-02-23T00:40:21;7.80;99.90
44170;DHT22;29836;52.286;9.576;2024-02-23T00:42:48;7.90;99.90
44170;DHT22;29836;52.286;9.576;2024-02-23T00:45:14;7.90;99.90
44170;DHT22;29836;52.286;9.576;2024-02-23T00:47:40;7.90;99.90
44170;DHT22;29836;52.286;9.576;2024-02-23T00:50:06;8.00;99.90
44170;DHT22;29836;52.286;9.576;2024-02-23T00:52:31;7.90;99.90
44170;DHT22;29836;52.286;9.576;2024-02-23T00:54:57;7.80;99.90
44170;DHT22;29836;52.286;9.576;2024-02-23T00:57:23;7.70;99.90
44170;DHT22;29836;52.286;9.576;2024-02-23T00:59:52;7.80;99.90
44170;DHT22;29836;52.286;9.576;2024-02-23T01:02:18;7.80;99.90
44170;DHT22;29836;52.286;9.576;2024-02-23T01:04:44;7.70;99.90
44170;DHT22;29836;52.286;9.576;2024-02-23T01:07:09;7.60;99.90
44170;DHT22;29836;52.286;9.576;2024-02-23T01:09:35;7.50;99.90
44170;DHT22;29836;52.286;9.576;2024-02-23T01:12:00;7.40;99.90
44170;DHT22;29836;52.286;9.576;2024-02-23T01:14:26;7.30;99.90
44170;DHT22;29836;52.286;9.576;2024-02-23T01:16:51;7.20;99.90
44170;DHT22;29836;52.286;9.576;2024-02-23T01:19:17;7.20;99.90
44170;DHT22;29836;52.286;9.576;2024-02-23T01:21:44;7.20;99.90
44170;DHT22;29836;52.286;9.576;2024-02-23T01:24:09;7.30;99.90
44170;DHT22;29836;52.286;9.576;2024-02-23T01:26:35;7.30;99.90
44170;DHT22;29836;52.286;9.576;2024-02-23T01:29:00;7.10;99.90
44170;DHT22;29836;52.286;9.576;2024-02-23T01:31:26;6.90;99.90
44170;DHT22;29836;52.286;9.576;2024-02-23T01:33:51;6.60;99.90
44170;DHT22;29836;52.286;9.576;2024-02-23T01:36:17;6.30;99.90
44170;DHT22;29836;52.286;9.576;2024-02-23T01:38:43;6.00;99.90
44170;DHT22;29836;52.286;9.576;2024-02-23T01:41:08;5.80;99.90
44170;DHT22;29836;52.286;9.576;2024-02-23T01:43:36;5.80;99.90
44170;DHT22;29836;52.286;9.576;2024-02-23T01:46:03;5.70;99.90
44170;DHT22;29836;52.286;9.576;2024-02-23T01:48:31;5.60;99.90
44170;DHT22;29836;52.286;9.576;2024-02-23T01:50:57;5.50;99.90
44170;DHT22;29836;52.286;9.576;2024-02-23T01:53:23;5.30;99.90
44170;DHT22;29836;52.286;9.576;2024-02-23T01:55:51;5.20;99.90
44170;DHT22;29836;52.286;9.576;2024-02-23T01:58:17;5.20;99.90
44170;DHT22;29836;52.286;9.576;2024-02-23T02:00:43;5.10;99.90
44170;DHT22;29836;52.286;9.576;2024-02-23T02:03:08;5.00;99.90
44170;DHT22;29836;52.286;9.576;2024-02-23T02:05:36;5.00;99.90
44170;DHT22;29836;52.286;9.576;2024-02-23T02:08:02;4.80;99.90
44170;DHT22;29836;52.286;9.576;2024-02-23T02:10:27;4.70;99.90
44170;DHT22;29836;52.286;9.576;2024-02-23T02:12:53;4.70;99.90
44170;DHT22;29836;52.286;9.576;2024-02-23T02:15:18;4.60;99.90
44170;DHT22;29836;52.286;9.576;2024-02-23T02:17:45;4.60;99.90
44170;DHT22;29836;52.286;9.576;2024-02-23T02:20:13;4.60;99.90
44170;DHT22;29836;52.286;9.576;2024-02-23T02:22:39;4.50;99.90
44170;DHT22;29836;52.286;9.576;2024-02-23T02:25:06;4.50;99.90
44170;DHT22;29836;52.286;9.576;2024-02-23T02:27:31;4.50;99.90
44170;DHT22;29836;52.286;9.576;2024-02-23T02:29:57;4.50;99.90
44170;DHT22;29836;52.286;9.576;2024-02-23T02:32:23;4.50;99.90
44170;DHT22;29836;52.286;9.576;2024-02-23T02:34:49;4.40;99.90
44170;DHT22;29836;52.286;9.576;2024-02-23T02:37:14;4.40;99.90
44170;DHT22;29836;52.286;9.576;2024-02-23T02:39:40;4.50;99.90
44170;DHT22;29836;52.286;9.576;2024-02-23T02:42:06;4.50;99.90
44170;DHT22;29836;52.286;9.576;2024-02-23T02:44:31;4.60;99.90
44170;DHT22;29836;52.286;9.576;2024-02-23T02:46:57;4.60;99.90
44170;DHT22;29836;52.286;9.576;2024-02-23T02:49:23;4.60;99.90
44170;DHT22;29836;52.286;9.576;2024-02-23T02:51:49;4.60;99.90
44170;DHT22;29836;52.286;9.576;2024-02-23T02:54:14;4.50;99.90
44170;DHT22;29836;52.286;9.576;2024-02-23T02:56:43;4.50;99.90
44170;DHT22;29836;52.286;9.576;2024-02-23T02:59:09;4.50;99.90
44170;DHT22;29836;52.286;9.576;2024-02-23T03:01:35;4.50;99.90
44170;DHT22;29836;52.286;9.576;2024-02-23T03:04:01;4.40;99.90
44170;DHT22;29836;52.286;9.576;2024-02-23T03:06:27;4.30;99.90
44170;DHT22;29836;52.286;9.576;2024-02-23T03:08:52;4.30;99.90
44170;DHT22;29836;52.286;9.576;2024-02-23T03:11:18;4.30;99.90
44170;DHT22;29836;52.286;9.576;2024-02-23T03:13:43;4.30;99.90
44170;DHT22;29836;52.286;9.576;2024-02-23T03:16:16;4.30;99.90
44170;DHT22;29836;52.286;9.576;2024-02-23T03:18:42;4.30;99.90
44170;DHT22;29836;52.286;9.576;2024-02-23T03:21:07;4.50;99.90
44170;DHT22;29836;52.286;9.576;2024-02-23T03:23:37;4.50;99.90
44170;DHT22;29836;52.286;9.576;2024-02-23T03:26:03;4.60;99.90
44170;DHT22;29836;52.286;9.576;2024-02-23T03:28:29;4.70;99.90
44170;DHT22;29836;52.286;9.576;2024-02-23T03:30:54;4.70;99.90
44170;DHT22;29836;52.286;9.576;2024-02-23T03:33:20;4.60;99.90
44170;DHT22;29836;52.286;9.576;2024-02-23T03:35:45;4.60;99.90
44170;DHT22;29836;52.286;9.576;2024-02-23T03:38:11;4.50;99.90
44170;DHT22;29836;52.286;9.576;2024-02-23T03:40:36;4.40;99.90
44170;DHT22;29836;52.286;9.576;2024-02-23T03:43:03;4.40;99.90
44170;DHT22;29836;52.286;9.576;2024-02-23T03:45:28;4.40;99.90
44170;DHT22;29836;52.286;9.576;2024-02-23T03:47:54;4.40;99.90
44170;DHT22;29836;52.286;9.576;2024-02-23T03:50:19;4.40;99.90
44170;DHT22;29836;52.286;9.576;2024-02-23T03:52:45;4.40;99.90
44170;DHT22;29836;52.286;9.576;2024-02-23T03:55:11;4.40;99.90
44170;DHT22;29836;52.286;9.576;2024-02-23T03:57:37;4.50;99.90
44170;DHT22;29836;52.286;9.576;2024-02-23T04:00:03;4.50;99.90
44170;DHT22;29836;52.286;9.576;2024-02-23T04:02:29;4.60;99.90
44170;DHT22;29836;52.286;9.576;2024-02-23T04:04:54;4.60;99.90
44170;DHT22;29836;52.286;9.576;2024-02-23T04:07:20;4.60;99.90
44170;DHT22;29836;52.286;9.576;2024-02-23T04:09:46;4.60;99.90
44170;DHT22;29836;52.286;9.576;2024-02-23T04:12:18;4.70;99.90
44170;DHT22;29836;52.286;9.576;2024-02-23T04:14:44;4.70;99.90
44170;DHT22;29836;52.286;9.576;2024-02-23T04:17:11;4.70;99.90
44170;DHT22;29836;52.286;9.576;2024-02-23T04:19:37;4.70;99.90
44170;DHT22;29836;52.286;9.576;2024-02-23T04:22:05;4.70;99.90
44170;DHT22;29836;52.286;9.576;2024-02-23T04:24:31;4.70;99.90
44170;DHT22;29836;52.286;9.576;2024-02-23T04:26:56;4.60;99.90
44170;DHT22;29836;52.286;9.576;2024-02-23T04:29:22;4.70;99.90
44170;DHT22;29836;52.286;9.576;2024-02-23T04:31:47;4.70;99.90
44170;DHT22;29836;52.286;9.576;2024-02-23T04:34:14;4.80;99.90
44170;DHT22;29836;52.286;9.576;2024-02-23T04:36:40;4.80;99.90
44170;DHT22;29836;52.286;9.576;2024-02-23T04:39:05;4.90;99.90
44170;DHT22;29836;52.286;9.576;2024-02-23T04:41:31;4.90;99.90
44170;DHT22;29836;52.286;9.576;2024-02-23T04:43:57;4.90;99.90
44170;DHT22;29836;52.286;9.576;2024-02-23T04:46:25;4.90;99.90
44170;DHT22;29836;52.286;9.576;2024-02-23T04:48:51;4.90;99.90
44170;DHT22;29836;52.286;9.576;2024-02-23T04:51:16;4.90;99.90
44170;DHT22;29836;52.286;9.576;2024-02-23T04:53:42;4.90;99.90
44170;DHT22;29836;52.286;9.576;2024-02-23T04:56:08;4.80;99.90
44170;DHT22;29836;52.286;9.576;2024-02-23T04:58:33;4.80;99.90
44170;DHT22;29836;52.286;9.576;2024-02-23T05:00:59;4.80;99.90
44170;DHT22;29836;52.286;9.576;2024-02-23T05:03:24;4.90;99.90
44170;DHT22;29836;52.286;9.576;2024-02-23T05:05:50;4.80;99.90
44170;DHT22;29836;52.286;9.576;2024-02-23T05:08:19;4.80;99.90
44170;DHT22;29836;52.286;9.576;2024-02-23T05:10:46;4.70;99.90
44170;DHT22;29836;52.286;9.576;2024-02-23T05:13:11;4.70;99.90
44170;DHT22;29836;52.286;9.576;2024-02-23T05:15:37;4.60;99.90
44170;DHT22;29836;52.286;9.576;2024-02-23T05:18:03;4.60;99.90
44170;DHT22;29836;52.286;9.576;2024-02-23T05:20:28;4.60;99.90
44170;DHT22;29836;52.286;9.576;2024-02-23T05:22:54;4.60;99.90
44170;DHT22;29836;52.286;9.576;2024-02-23T05:25:22;4.50;99.90
44170;DHT22;29836;52.286;9.576;2024-02-23T05:27:48;4.50;99.90
44170;DHT22;29836;52.286;9.576;2024-02-23T05:30:14;4.50;99.90
44170;DHT22;29836;52.286;9.576;2024-02-23T05:32:39;4.60;99.90
44170;DHT22;29836;52.286;9.576;2024-02-23T05:35:06;4.50;99.90
44170;DHT22;29836;52.286;9.576;2024-02-23T05:37:31;4.60;99.90
44170;DHT22;29836;52.286;9.576;2024-02-23T05:39:57;4.60;99.90
44170;DHT22;29836;52.286;9.576;2024-02-23T05:42:25;4.60;99.90
44170;DHT22;29836;52.286;9.576;2024-02-23T05:44:51;4.60;99.90
44170;DHT22;29836;52.286;9.576;2024-02-23T05:47:16;4.60;99.90
44170;DHT22;29836;52.286;9.576;2024-02-23T05:49:42;4.60;99.90
44170;DHT22;29836;52.286;9.576;2024-02-23T05:52:08;4.60;99.90
44170;DHT22;29836;52.286;9.576;2024-02-23T05:54:34;4.70;99.90
44170;DHT22;29836;52.286;9.576;2024-02-23T05:57:00;4.70;99.90
44170;DHT22;29836;52.286;9.576;2024-02-23T05:59:26;4.80;99.90
44170;DHT22;29836;52.286;9.576;2024-02-23T06:01:52;4.80;99.90
44170;DHT22;29836;52.286;9.576;2024-02-23T06:04:22;4.80;99.90
44170;DHT22;29836;52.286;9.576;2024-02-23T06:06:48;4.80;99.90
44170;DHT22;29836;52.286;9.576;2024-02-23T06:09:13;4.70;99.90
44170;DHT22;29836;52.286;9.576;2024-02-23T06:11:39;4.70;99.90
44170;DHT22;29836;52.286;9.576;2024-02-23T06:14:04;4.70;99.90
44170;DHT22;29836;52.286;9.576;2024-02-23T06:16:30;4.80;99.90
44170;DHT22;29836;52.286;9.576;2024-02-23T06:18:55;4.90;99.90
44170;DHT22;29836;52.286;9.576;2024-02-23T06:21:21;4.90;99.90
44170;DHT22;29836;52.286;9.576;2024-02-23T06:23:46;4.90;99.90
44170;DHT22;29836;52.286;9.576;2024-02-23T06:26:12;4.90;99.90
44170;DHT22;29836;52.286;9.576;2024-02-23T06:28:39;4.90;99.90
44170;DHT22;29836;52.286;9.576;2024-02-23T06:31:07;4.90;99.90
44170;DHT22;29836;52.286;9.576;2024-02-23T06:33:32;4.80;99.90
44170;DHT22;29836;52.286;9.576;2024-02-23T06:35:58;4.70;99.90
44170;DHT22;29836;52.286;9.576;2024-02-23T06:38:24;4.60;99.90
44170;DHT22;29836;52.286;9.576;2024-02-23T06:40:49;4.50;99.90
44170;DHT22;29836;52.286;9.576;2024-02-23T06:43:15;4.50;99.90
44170;DHT22;29836;52.286;9.576;2024-02-23T06:45:40;4.40;99.90
44170;DHT22;29836;52.286;9.576;2024-02-23T06:48:06;4.40;99.90
44170;DHT22;29836;52.286;9.576;2024-02-23T06:50:32;4.50;99.90
44170;DHT22;29836;52.286;9.576;2024-02-23T06:52:57;4.60;99.90
44170;DHT22;29836;52.286;9.576;2024-02-23T06:55:23;4.70;99.90
44170;DHT22;29836;52.286;9.576;2024-02-23T06:57:48;4.80;99.90
44170;DHT22;29836;52.286;9.576;2024-02-23T07:00:15;4.80;99.90
44170;DHT22;29836;52.286;9.576;2024-02-23T07:02:41;4.70;99.90
44170;DHT22;29836;52.286;9.576;2024-02-23T07:05:07;4.80;99.90
44170;DHT22;29836;52.286;9.576;2024-02-23T07:07:34;4.90;99.90
44170;DHT22;29836;52.286;9.576;2024-02-23T07:10:00;4.90;99.90
44170;DHT22;29836;52.286;9.576;2024-02-23T07:12:26;4.90;99.90
44170;DHT22;29836;52.286;9.576;2024-02-23T07:14:56;4.80;99.90
44170;DHT22;29836;52.286;9.576;2024-02-23T07:17:22;4.90;99.90
44170;DHT22;29836;52.286;9.576;2024-02-23T07:19:47;5.00;99.90
44170;DHT22;29836;52.286;9.576;2024-02-23T07:22:13;5.00;99.90
44170;DHT22;29836;52.286;9.576;2024-02-23T07:24:42;5.00;99.90
44170;DHT22;29836;52.286;9.576;2024-02-23T07:27:08;5.10;99.90
44170;DHT22;29836;52.286;9.576;2024-02-23T07:29:34;5.10;99.90
44170;DHT22;29836;52.286;9.576;2024-02-23T07:31:59;5.10;99.90
44170;DHT22;29836;52.286;9.576;2024-02-23T07:34:25;5.10;99.90
44170;DHT22;29836;52.286;9.576;2024-02-23T07:36:54;5.20;99.90
44170;DHT22;29836;52.286;9.576;2024-02-23T07:39:20;5.20;99.90
44170;DHT22;29836;52.286;9.576;2024-02-23T07:41:47;5.20;99.90
44170;DHT22;29836;52.286;9.576;2024-02-23T07:44:12;5.30;99.90
44170;DHT22;29836;52.286;9.576;2024-02-23T07:46:38;5.40;99.90
44170;DHT22;29836;52.286;9.576;2024-02-23T07:49:06;5.50;99.90
44170;DHT22;29836;52.286;9.576;2024-02-23T07:51:32;5.70;99.90
44170;DHT22;29836;52.286;9.576;2024-02-23T07:53:57;6.40;99.90
44170;DHT22;29836;52.286;9.576;2024-02-23T07:56:23;7.10;99.90
44170;DHT22;29836;52.286;9.576;2024-02-23T07:58:49;7.60;99.90
44170;DHT22;29836;52.286;9.576;2024-02-23T08:01:14;8.00;99.90
44170;DHT22;29836;52.286;9.576;2024-02-23T08:03:40;8.20;99.90
44170;DHT22;29836;52.286;9.576;2024-02-23T08:06:06;8.20;99.90
44170;DHT22;29836;52.286;9.576;2024-02-23T08:08:32;8.40;99.90
44170;DHT22;29836;52.286;9.576;2024-02-23T08:11:01;8.60;99.40
44170;DHT22;29836;52.286;9.576;2024-02-23T08:13:28;8.70;98.70
44170;DHT22;29836;52.286;9.576;2024-02-23T08:15:53;9.40;97.90
44170;DHT22;29836;52.286;9.576;2024-02-23T08:18:19;10.00;97.10
44170;DHT22;29836;52.286;9.576;2024-02-23T08:20:44;10.40;96.00
44170;DHT22;29836;52.286;9.576;2024-02-23T08:23:10;11.00;95.20
44170;DHT22;29836;52.286;9.576;2024-02-23T08:25:36;11.00;94.40
44170;DHT22;29836;52.286;9.576;2024-02-23T08:28:02;11.00;93.40
44170;DHT22;29836;52.286;9.576;2024-02-23T08:30:28;11.10;93.80
44170;DHT22;29836;52.286;9.576;2024-02-23T08:32:53;12.20;91.80
44170;DHT22;29836;52.286;9.576;2024-02-23T08:35:19;12.50;91.20
44170;DHT22;29836;52.286;9.576;2024-02-23T08:37:45;12.90;90.50
44170;DHT22;29836;52.286;9.576;2024-02-23T08:40:11;13.70;89.70
44170;DHT22;29836;52.286;9.576;2024-02-23T08:42:37;13.90;87.10
44170;DHT22;29836;52.286;9.576;2024-02-23T08:45:03;14.30;84.00
44170;DHT22;29836;52.286;9.576;2024-02-23T08:47:29;15.00;83.10
44170;DHT22;29836;52.286;9.576;2024-02-23T08:49:58;15.60;79.50
44170;DHT22;29836;52.286;9.576;2024-02-23T08:52:24;15.50;78.80
44170;DHT22;29836;52.286;9.576;2024-02-23T08:54:51;16.20;77.80
44170;DHT22;29836;52.286;9.576;2024-02-23T08:57:17;16.20;75.90
44170;DHT22;29836;52.286;9.576;2024-02-23T08:59:48;16.00;76.80
44170;DHT22;29836;52.286;9.576;2024-02-23T09:02:14;15.80;76.00
44170;DHT22;29836;52.286;9.576;2024-02-23T09:04:39;15.00;78.20
44170;DHT22;29836;52.286;9.576;2024-02-23T09:07:05;14.60;78.10
44170;DHT22;29836;52.286;9.576;2024-02-23T09:09:31;13.90;79.20
44170;DHT22;29836;52.286;9.576;2024-02-23T09:11:56;14.80;78.30
44170;DHT22;29836;52.286;9.576;2024-02-23T09:14:22;15.40;76.90
44170;DHT22;29836;52.286;9.576;2024-02-23T09:16:48;15.60;75.10
44170;DHT22;29836;52.286;9.576;2024-02-23T09:19:16;14.80;75.00
44170;DHT22;29836;52.286;9.576;2024-02-23T09:21:41;13.60;77.90
44170;DHT22;29836;52.286;9.576;2024-02-23T09:24:07;12.10;81.90
44170;DHT22;29836;52.286;9.576;2024-02-23T09:26:33;11.00;84.20
44170;DHT22;29836;52.286;9.576;2024-02-23T09:28:58;10.20;87.30
44170;DHT22;29836;52.286;9.576;2024-02-23T09:31:24;9.50;90.50
44170;DHT22;29836;52.286;9.576;2024-02-23T09:33:49;9.00;90.50
44170;DHT22;29836;52.286;9.576;2024-02-23T09:36:17;8.50;91.50
44170;DHT22;29836;52.286;9.576;2024-02-23T09:38:43;8.40;92.60
44170;DHT22;29836;52.286;9.576;2024-02-23T09:41:17;8.30;92.60
44170;DHT22;29836;52.286;9.576;2024-02-23T09:43:44;8.10;92.90
44170;DHT22;29836;52.286;9.576;2024-02-23T09:46:11;8.10;92.70
44170;DHT22;29836;52.286;9.576;2024-02-23T09:48:38;8.00;93.20
44170;DHT22;29836;52.286;9.576;2024-02-23T09:51:05;7.90;94.10
44170;DHT22;29836;52.286;9.576;2024-02-23T09:53:33;7.80;94.10
44170;DHT22;29836;52.286;9.576;2024-02-23T09:55:59;7.90;94.00
44170;DHT22;29836;52.286;9.576;2024-02-23T09:58:26;7.90;94.30
44170;DHT22;29836;52.286;9.576;2024-02-23T10:00:56;7.90;94.50
44170;DHT22;29836;52.286;9.576;2024-02-23T10:03:24;7.70;94.30
44170;DHT22;29836;52.286;9.576;2024-02-23T10:05:51;7.60;94.80
44170;DHT22;29836;52.286;9.576;2024-02-23T10:08:17;7.50;95.10
44170;DHT22;29836;52.286;9.576;2024-02-23T10:10:45;7.30;95.40
44170;DHT22;29836;52.286;9.576;2024-02-23T10:13:11;7.20;96.00
44170;DHT22;29836;52.286;9.576;2024-02-23T10:15:37;7.10;95.50
44170;DHT22;29836;52.286;9.576;2024-02-23T10:18:03;7.20;95.40
44170;DHT22;29836;52.286;9.576;2024-02-23T10:20:29;7.20;95.40
44170;DHT22;29836;52.286;9.576;2024-02-23T10:22:55;7.50;94.90
44170;DHT22;29836;52.286;9.576;2024-02-23T10:25:21;7.60;94.80
44170;DHT22;29836;52.286;9.576;2024-02-23T10:27:47;7.90;94.40
44170;DHT22;29836;52.286;9.576;2024-02-23T10:30:13;7.90;94.30
44170;DHT22;29836;52.286;9.576;2024-02-23T10:32:41;8.00;94.80
44170;DHT22;29836;52.286;9.576;2024-02-23T10:35:16;8.30;94.10
44170;DHT22;29836;52.286;9.576;2024-02-23T10:37:43;9.20;92.20
44170;DHT22;29836;52.286;9.576;2024-02-23T10:40:12;9.40;91.60
44170;DHT22;29836;52.286;9.576;2024-02-23T10:42:39;9.10;92.30
44170;DHT22;29836;52.286;9.576;2024-02-23T10:45:07;9.60;92.60
44170;DHT22;29836;52.286;9.576;2024-02-23T10:47:33;10.80;90.20
44170;DHT22;29836;52.286;9.576;2024-02-23T10:50:01;11.00;90.20
44170;DHT22;29836;52.286;9.576;2024-02-23T10:52:28;11.10;90.30
44170;DHT22;29836;52.286;9.576;2024-02-23T10:54:54;12.40;86.10
44170;DHT22;29836;52.286;9.576;2024-02-23T10:57:21;12.80;83.90
44170;DHT22;29836;52.286;9.576;2024-02-23T10:59:47;12.30;85.00
44170;DHT22;29836;52.286;9.576;2024-02-23T11:02:14;12.70;87.80
44170;DHT22;29836;52.286;9.576;2024-02-23T11:04:46;13.40;83.20
44170;DHT22;29836;52.286;9.576;2024-02-23T11:07:17;14.80;79.80
44170;DHT22;29836;52.286;9.576;2024-02-23T11:09:48;14.80;79.00
44170;DHT22;29836;52.286;9.576;2024-02-23T11:12:22;15.10;76.70
44170;DHT22;29836;52.286;9.576;2024-02-23T11:14:49;15.00;77.90
44170;DHT22;29836;52.286;9.576;2024-02-23T11:17:19;13.70;79.80
44170;DHT22;29836;52.286;9.576;2024-02-23T11:19:48;12.50;83.80
44170;DHT22;29836;52.286;9.576;2024-02-23T11:22:14;11.60;84.20
44170;DHT22;29836;52.286;9.576;2024-02-23T11:24:43;11.00;87.10
44170;DHT22;29836;52.286;9.576;2024-02-23T11:27:15;10.80;87.70
44170;DHT22;29836;52.286;9.576;2024-02-23T11:29:43;10.30;89.50
44170;DHT22;29836;52.286;9.576;2024-02-23T11:32:14;10.00;89.60
44170;DHT22;29836;52.286;9.576;2024-02-23T11:34:40;9.90;90.20
44170;DHT22;29836;52.286;9.576;2024-02-23T11:37:11;9.90;90.20
44170;DHT22;29836;52.286;9.576;2024-02-23T11:39:38;9.90;90.40
44170;DHT22;29836;52.286;9.576;2024-02-23T11:42:06;9.80;91.00
44170;DHT22;29836;52.286;9.576;2024-02-23T11:44:32;9.90;91.10
44170;DHT22;29836;52.286;9.576;2024-02-23T11:46:58;9.90;90.00
44170;DHT22;29836;52.286;9.576;2024-02-23T11:49:28;9.80;90.20
44170;DHT22;29836;52.286;9.576;2024-02-23T11:51:54;9.70;91.30
44170;DHT22;29836;52.286;9.576;2024-02-23T11:54:20;9.80;91.40
44170;DHT22;29836;52.286;9.576;2024-02-23T11:56:47;9.60;90.80
44170;DHT22;29836;52.286;9.576;2024-02-23T11:59:14;9.40;91.60
44170;DHT22;29836;52.286;9.576;2024-02-23T12:01:40;9.30;91.20
44170;DHT22;29836;52.286;9.576;2024-02-23T12:04:05;9.20;91.80
44170;DHT22;29836;52.286;9.576;2024-02-23T12:06:31;9.30;92.30
44170;DHT22;29836;52.286;9.576;2024-02-23T12:08:58;9.30;92.10
44170;DHT22;29836;52.286;9.576;2024-02-23T12:11:24;9.30;92.30
44170;DHT22;29836;52.286;9.576;2024-02-23T12:13:50;9.30;92.80
44170;DHT22;29836;52.286;9.576;2024-02-23T12:16:16;9.30;92.90
44170;DHT22;29836;52.286;9.576;2024-02-23T12:18:42;9.30;93.50
44170;DHT22;29836;52.286;9.576;2024-02-23T12:21:08;9.30;92.30
44170;DHT22;29836;52.286;9.576;2024-02-23T12:23:41;9.30;92.90
44170;DHT22;29836;52.286;9.576;2024-02-23T12:26:07;9.20;92.30
44170;DHT22;29836;52.286;9.576;2024-02-23T12:28:33;9.20;91.60
44170;DHT22;29836;52.286;9.576;2024-02-23T12:31:02;9.00;92.00
44170;DHT22;29836;52.286;9.576;2024-02-23T12:33:29;8.90;91.90
44170;DHT22;29836;52.286;9.576;2024-02-23T12:35:55;9.00;92.30
44170;DHT22;29836;52.286;9.576;2024-02-23T12:38:22;9.00;92.30
44170;DHT22;29836;52.286;9.576;2024-02-23T12:40:47;9.00;92.10
44170;DHT22;29836;52.286;9.576;2024-02-23T12:43:13;8.90;92.30
44170;DHT22;29836;52.286;9.576;2024-02-23T12:45:38;9.00;92.10
44170;DHT22;29836;52.286;9.576;2024-02-23T12:48:05;9.00;92.20
44170;DHT22;29836;52.286;9.576;2024-02-23T12:50:30;9.00;92.70
44170;DHT22;29836;52.286;9.576;2024-02-23T12:52:56;8.90;92.00
44170;DHT22;29836;52.286;9.576;2024-02-23T12:55:22;8.80;92.10
44170;DHT22;29836;52.286;9.576;2024-02-23T12:57:48;8.90;92.10
44170;DHT22;29836;52.286;9.576;2024-02-23T13:00:14;9.00;91.70
44170;DHT22;29836;52.286;9.576;2024-02-23T13:02:40;8.90;91.70
44170;DHT22;29836;52.286;9.576;2024-02-23T13:05:05;8.90;91.70
44170;DHT22;29836;52.286;9.576;2024-02-23T13:07:32;8.90;92.10
44170;DHT22;29836;52.286;9.576;2024-02-23T13:09:58;8.90;91.70
44170;DHT22;29836;52.286;9.576;2024-02-23T13:12:23;8.90;91.40
44170;DHT22;29836;52.286;9.576;2024-02-23T13:14:51;8.90;91.90
44170;DHT22;29836;52.286;9.576;2024-02-23T13:17:16;9.00;92.10
44170;DHT22;29836;52.286;9.576;2024-02-23T13:19:43;8.90;91.90
44170;DHT22;29836;52.286;9.576;2024-02-23T13:22:08;8.80;92.00
44170;DHT22;29836;52.286;9.576;2024-02-23T13:24:34;8.80;91.90
44170;DHT22;29836;52.286;9.576;2024-02-23T13:27:00;9.00;92.00
44170;DHT22;29836;52.286;9.576;2024-02-23T13:29:25;9.00;91.80
44170;DHT22;29836;52.286;9.576;2024-02-23T13:31:51;8.90;91.50
44170;DHT22;29836;52.286;9.576;2024-02-23T13:34:17;8.80;92.40
44170;DHT22;29836;52.286;9.576;2024-02-23T13:36:44;8.80;92.20
44170;DHT22;29836;52.286;9.576;2024-02-23T13:39:10;8.80;92.10
44170;DHT22;29836;52.286;9.576;2024-02-23T13:41:35;8.80;92.00
44170;DHT22;29836;52.286;9.576;2024-02-23T13:44:01;8.90;91.90
44170;DHT22;29836;52.286;9.576;2024-02-23T13:46:26;8.80;92.10
44170;DHT22;29836;52.286;9.576;2024-02-23T13:49:06;8.80;92.50
44170;DHT22;29836;52.286;9.576;2024-02-23T13:51:32;8.80;92.50
44170;DHT22;29836;52.286;9.576;2024-02-23T13:53:58;8.80;92.10
44170;DHT22;29836;52.286;9.576;2024-02-23T13:56:23;8.70;92.60
44170;DHT22;29836;52.286;9.576;2024-02-23T13:58:49;8.80;93.10
44170;DHT22;29836;52.286;9.576;2024-02-23T14:01:15;8.90;93.20
44170;DHT22;29836;52.286;9.576;2024-02-23T14:03:41;8.90;92.90
44170;DHT22;29836;52.286;9.576;2024-02-23T14:06:06;8.80;92.70
44170;DHT22;29836;52.286;9.576;2024-02-23T14:08:32;8.70;92.80
44170;DHT22;29836;52.286;9.576;2024-02-23T14:11:00;8.70;92.80
44170;DHT22;29836;52.286;9.576;2024-02-23T14:13:26;8.70;92.40
44170;DHT22;29836;52.286;9.576;2024-02-23T14:15:52;8.70;92.30
44170;DHT22;29836;52.286;9.576;2024-02-23T14:18:17;8.80;93.20
44170;DHT22;29836;52.286;9.576;2024-02-23T14:20:43;9.00;93.00
44170;DHT22;29836;52.286;9.576;2024-02-23T14:23:09;9.00;92.70
44170;DHT22;29836;52.286;9.576;2024-02-23T14:25:34;9.00;92.40
44170;DHT22;29836;52.286;9.576;2024-02-23T14:28:00;9.00;92.30
44170;DHT22;29836;52.286;9.576;2024-02-23T14:30:25;9.00;92.30
44170;DHT22;29836;52.286;9.576;2024-02-23T14:32:51;9.00;91.50
44170;DHT22;29836;52.286;9.576;2024-02-23T14:35:16;8.90;92.40
44170;DHT22;29836;52.286;9.576;2024-02-23T14:37:42;8.90;92.10
44170;DHT22;29836;52.286;9.576;2024-02-23T14:40:08;8.80;92.30
44170;DHT22;29836;52.286;9.576;2024-02-23T14:42:34;8.70;92.40
44170;DHT22;29836;52.286;9.576;2024-02-23T14:44:59;8.70;92.50
44170;DHT22;29836;52.286;9.576;2024-02-23T14:47:25;8.60;92.60
44170;DHT22;29836;52.286;9.576;2024-02-23T14:49:50;8.50;93.00
44170;DHT22;29836;52.286;9.576;2024-02-23T14:52:16;8.50;92.80
44170;DHT22;29836;52.286;9.576;2024-02-23T14:54:41;8.50;92.90
44170;DHT22;29836;52.286;9.576;2024-02-23T14:57:07;8.50;93.20
44170;DHT22;29836;52.286;9.576;2024-02-23T14:59:33;8.50;93.30
44170;DHT22;29836;52.286;9.576;2024-02-23T15:02:01;8.50;93.20
44170;DHT22;29836;52.286;9.576;2024-02-23T15:04:27;8.50;93.20
44170;DHT22;29836;52.286;9.576;2024-02-23T15:06:53;8.50;93.20
44170;DHT22;29836;52.286;9.576;2024-02-23T15:09:18;8.50;93.40
44170;DHT22;29836;52.286;9.576;2024-02-23T15:11:44;8.50;93.70
44170;DHT22;29836;52.286;9.576;2024-02-23T15:14:10;8.50;93.80
44170;DHT22;29836;52.286;9.576;2024-02-23T15:16:35;8.50;93.70
44170;DHT22;29836;52.286;9.576;2024-02-23T15:19:02;8.50;93.30
44170;DHT22;29836;52.286;9.576;2024-02-23T15:21:27;8.50;93.30
44170;DHT22;29836;52.286;9.576;2024-02-23T15:23:53;8.50;93.20
44170;DHT22;29836;52.286;9.576;2024-02-23T15:26:19;8.40;93.20
44170;DHT22;29836;52.286;9.576;2024-02-23T15:28:44;8.40;93.60
44170;DHT22;29836;52.286;9.576;2024-02-23T15:31:11;8.40;94.30
44170;DHT22;29836;52.286;9.576;2024-02-23T15:33:37;8.40;93.50
44170;DHT22;29836;52.286;9.576;2024-02-23T15:36:06;8.30;93.50
44170;DHT22;29836;52.286;9.576;2024-02-23T15:38:34;8.20;94.10